Time;durP1;ratioP1;P1;durP2;ratioP2;P2;SDS_P1;SDS_P2;PMS_P1;PMS_P2;Temp;Humidity;BMP_temperature;BMP_pressure;BME280_temperature;BME280_humidity;BME280_pressure;Samples;Min_cycle;Max_cycle;Signal;HPM_P1;HPM_P2
2022/11/10 00:01:06;;;;;;;84.93;43.33;;;;;;;9.01;100.00;100138.53;5073063;28;20592;-59
2022/11/10 00:03:33;;;;;;;85.50;43.87;;;;;;;8.95;100.00;100137.72;5072775;28;20226;-59
2022/11/10 00:06:02;;;;;;;82.13;44.03;;;;;;;8.92;100.00;100150.69;5073021;28;20218;-57
2022/11/10 00:08:29;;;;;;;79.47;43.77;;;;;;;8.88;100.00;100136.09;5072994;28;20207;-58
2022/11/10 00:11:00;;;;;;;83.63;45.70;;;;;;;8.87;100.00;100140.41;5073291;28;20253;-58
2022/11/10 00:13:29;;;;;;;91.83;46.43;;;;;;;8.83;100.00;100137.88;5072770;28;20270;-58
2022/11/10 00:18:45;;;;;;;90.30;45.70;;;;;;;8.89;100.00;100130.06;5072631;28;20330;-58
2022/11/10 00:21:13;;;;;;;76.77;44.57;;;;;;;8.95;100.00;100132.56;5072190;28;20228;-57
2022/11/10 00:23:41;;;;;;;75.07;43.87;;;;;;;9.03;100.00;100130.72;5072470;28;20223;-56
2022/11/10 00:26:12;;;;;;;82.93;44.67;;;;;;;8.95;100.00;100133.41;5071953;28;20613;-56
2022/11/10 00:28:39;;;;;;;86.07;43.23;;;;;;;9.03;100.00;100130.72;5071661;28;20242;-55
2022/11/10 00:31:07;;;;;;;83.97;44.23;;;;;;;9.15;100.00;100127.97;5072076;28;20192;-55
2022/11/10 00:33:37;;;;;;;80.53;44.40;;;;;;;8.99;100.00;100101.44;5072326;28;20688;-58
2022/11/10 00:36:06;;;;;;;80.60;44.00;;;;;;;9.18;100.00;100134.84;5072281;28;20215;-58
2022/11/10 00:38:33;;;;;;;83.20;44.47;;;;;;;9.25;100.00;100119.22;5072024;28;20568;-58
2022/11/10 00:41:01;;;;;;;78.63;43.63;;;;;;;9.32;100.00;100117.41;5072449;28;20196;-59
2022/11/10 00:43:28;;;;;;;70.83;41.30;;;;;;;9.36;100.00;100119.94;5072316;28;20219;-55
2022/11/10 00:45:55;;;;;;;82.03;44.03;;;;;;;9.24;100.00;100117.50;5072284;28;20274;-58
2022/11/10 00:48:22;;;;;;;72.93;42.77;;;;;;;9.23;100.00;100120.97;5072353;28;20208;-58
2022/11/10 00:50:49;;;;;;;80.17;44.60;;;;;;;9.21;100.00;100122.72;5072141;28;20204;-57
2022/11/10 00:53:18;;;;;;;80.90;42.60;;;;;;;9.19;100.00;100111.53;5071688;28;20679;-56
2022/11/10 00:55:45;;;;;;;77.47;43.77;;;;;;;9.27;100.00;100119.19;5071439;28;20203;-56
2022/11/10 00:58:12;;;;;;;82.57;45.03;;;;;;;9.18;100.00;100115.00;5072369;28;20663;-59
2022/11/10 01:00:38;;;;;;;79.27;43.43;;;;;;;9.23;100.00;100118.38;5072028;28;20202;-57
2022/11/10 01:03:06;;;;;;;73.30;42.43;;;;;;;9.23;100.00;100120.13;5071975;28;20251;-59
2022/11/10 01:05:36;;;;;;;77.10;42.80;;;;;;;9.04;100.00;100091.00;5071264;28;20198;-58
2022/11/10 01:08:03;;;;;;;79.13;44.23;;;;;;;9.11;100.00;100123.72;5071943;28;20200;-55
2022/11/10 01:10:31;;;;;;;87.60;46.60;;;;;;;9.04;100.00;100116.91;5071063;28;20204;-54
2022/11/10 01:12:58;;;;;;;80.00;47.00;;;;;;;8.98;100.00;100106.63;5071443;28;20579;-54
2022/11/10 01:15:25;;;;;;;87.40;47.30;;;;;;;8.98;100.00;100112.66;5071183;28;20195;-55
2022/11/10 01:17:53;;;;;;;87.23;47.70;;;;;;;8.94;100.00;100110.13;5071067;28;20214;-55
2022/11/10 01:20:20;;;;;;;87.90;48.83;;;;;;;8.94;100.00;100112.72;5070681;28;20236;-55
2022/11/10 01:22:47;;;;;;;91.53;48.73;;;;;;;8.88;100.00;100112.81;5070632;28;20620;-55
2022/11/10 01:25:14;;;;;;;95.53;51.30;;;;;;;8.74;100.00;100112.97;5070929;28;20196;-58
2022/11/10 01:27:42;;;;;;;88.27;49.13;;;;;;;8.77;100.00;100117.25;5070688;28;20210;-56
2022/11/10 01:30:10;;;;;;;90.67;49.07;;;;;;;8.78;100.00;100113.78;5070754;28;20227;-55
2022/11/10 01:32:37;;;;;;;92.37;49.43;;;;;;;8.76;100.00;100110.38;5070731;28;20640;-56
2022/11/10 01:35:05;;;;;;;89.97;49.07;;;;;;;8.74;100.00;100112.97;5070544;28;20203;-56
2022/11/10 01:37:32;;;;;;;89.97;48.23;;;;;;;8.70;100.00;100111.28;5070882;28;20202;-58
2022/11/10 01:39:59;;;;;;;87.80;48.07;;;;;;;8.71;100.00;100103.50;5071354;28;20707;-58
2022/11/10 01:42:27;;;;;;;92.33;50.07;;;;;;;8.79;100.00;100118.09;5071487;28;20759;-58
2022/11/10 01:45:37;;;;;;;94.40;49.53;;;;;;;8.79;100.00;100105.16;5070534;28;20203;-58
2022/11/10 01:48:07;;;;;;;88.37;48.03;;;;;;;8.83;100.00;100112.00;5055191;28;20642;-58
2022/11/10 01:50:39;;;;;;;91.27;48.60;;;;;;;8.80;100.00;100105.16;5070600;28;20283;-59
2022/11/10 01:53:12;;;;;;;89.27;47.37;;;;;;;8.65;100.00;100107.91;5070470;28;20203;-58
2022/11/10 01:55:43;;;;;;;93.53;48.73;;;;;;;8.57;100.00;100114.91;5070476;28;20202;-57
2022/11/10 01:58:12;;;;;;;82.47;47.37;;;;;;;8.49;100.00;100106.34;5070525;28;20589;-58
2022/11/10 02:00:39;;;;;;;88.83;48.23;;;;;;;8.48;100.00;100109.81;5070413;28;20287;-58
2022/11/10 02:03:13;;;;;;;92.23;49.67;;;;;;;8.43;100.00;100111.59;5070170;28;20221;-58
2022/11/10 02:05:40;;;;;;;84.40;47.63;;;;;;;8.41;100.00;100106.44;5070300;28;20207;-58
2022/11/10 02:08:08;;;;;;;81.37;47.03;;;;;;;8.42;100.00;100102.97;5069898;28;20276;-56
2022/11/10 02:10:36;;;;;;;75.60;43.37;;;;;;;8.40;100.00;100096.09;5070055;28;20195;-56
2022/11/10 02:13:03;;;;;;;84.00;46.93;;;;;;;8.41;100.00;100114.19;5070276;28;20257;-58
2022/11/10 02:15:30;;;;;;;80.03;43.37;;;;;;;8.35;100.00;100103.94;5070848;28;20192;-58
2022/11/10 02:17:59;;;;;;;80.00;44.07;;;;;;;8.32;100.00;100110.00;5069637;28;20231;-59
2022/11/10 02:20:28;;;;;;;77.70;43.63;;;;;;;8.31;100.00;100107.38;5070300;28;20239;-59
2022/11/10 02:22:56;;;;;;;73.27;43.60;;;;;;;8.31;100.00;100108.28;5070357;28;20749;-59
2022/11/10 02:25:27;;;;;;;72.40;39.63;;;;;;;8.53;100.00;100115.81;5070183;28;20202;-59
2022/11/10 02:27:54;;;;;;;67.17;38.93;;;;;;;8.59;100.00;100118.31;5070743;28;20641;-56
2022/11/10 02:30:21;;;;;;;68.33;39.93;;;;;;;8.68;100.00;100116.50;5069733;28;20203;-58
2022/11/10 02:32:48;;;;;;;64.17;41.10;;;;;;;8.50;100.00;100121.84;5070339;28;20282;-58
2022/11/10 02:35:15;;;;;;;80.93;42.10;;;;;;;8.50;100.00;100126.19;5070274;28;20200;-58
2022/11/10 02:37:42;;;;;;;73.70;41.30;;;;;;;8.59;100.00;100118.31;5070298;28;20206;-59
2022/11/10 02:40:11;;;;;;;72.37;41.93;;;;;;;8.60;100.00;100128.63;5070091;28;20575;-59
2022/11/10 02:42:38;;;;;;;69.17;40.90;;;;;;;8.51;100.00;100130.47;5070214;28;20220;-58
2022/11/10 02:45:07;;;;;;;66.30;40.00;;;;;;;8.45;100.00;100128.81;5070176;28;20210;-56
2022/11/10 02:47:34;;;;;;;83.23;42.27;;;;;;;8.41;100.00;100140.06;5069798;28;20286;-55
2022/11/10 02:50:01;;;;;;;74.47;42.73;;;;;;;8.29;100.00;100122.91;5069461;28;20591;-55
2022/11/10 02:52:28;;;;;;;73.90;40.00;;;;;;;8.31;100.00;100136.72;5069116;28;20198;-56
2022/11/10 02:54:55;;;;;;;68.70;42.20;;;;;;;8.26;100.00;100135.84;5069679;28;20200;-55
2022/11/10 02:57:23;;;;;;;69.37;41.87;;;;;;;8.28;100.00;100133.25;5069336;28;20237;-55
2022/11/10 02:59:50;;;;;;;77.10;42.47;;;;;;;8.28;100.00;100139.28;5069438;28;20206;-56
2022/11/10 03:02:17;;;;;;;69.77;40.23;;;;;;;8.28;100.00;100141.03;5069777;28;20738;-56
2022/11/10 03:04:44;;;;;;;79.37;42.20;;;;;;;8.16;100.00;100131.66;5069295;28;20224;-56
2022/11/10 03:07:11;;;;;;;74.23;43.03;;;;;;;8.19;100.00;100139.38;5069676;28;20253;-55
2022/11/10 03:09:38;;;;;;;70.83;41.13;;;;;;;8.13;100.00;100141.16;5069423;28;20196;-55
2022/11/10 03:12:05;;;;;;;69.30;41.17;;;;;;;8.06;100.00;100142.09;5069337;28;20594;-58
2022/11/10 03:14:33;;;;;;;65.47;40.00;;;;;;;8.06;100.00;100137.78;5069497;28;20200;-58
2022/11/10 03:17:00;;;;;;;73.97;41.43;;;;;;;8.06;100.00;100136.91;5069436;28;20299;-56
2022/11/10 03:19:27;;;;;;;76.17;43.40;;;;;;;8.00;100.00;100136.13;5068953;28;20200;-55
2022/11/10 03:21:54;;;;;;;73.50;42.73;;;;;;;8.02;100.00;100141.25;5068968;28;20242;-55
2022/11/10 03:24:21;;;;;;;74.90;42.90;;;;;;;8.01;100.00;100134.38;5069182;28;20219;-54
2022/11/10 03:26:48;;;;;;;76.00;42.87;;;;;;;8.03;100.00;100133.47;5069404;28;20198;-55
2022/11/10 03:29:14;;;;;;;79.47;44.67;;;;;;;8.00;100.00;100128.38;5072140;28;20206;-55
2022/11/10 03:31:43;;;;;;;78.60;42.67;;;;;;;8.06;100.00;100132.59;5073379;28;20317;-58
2022/11/10 03:34:10;;;;;;;73.67;43.50;;;;;;;8.01;100.00;100132.63;5073388;28;20231;-58
2022/11/10 03:36:37;;;;;;;75.37;44.83;;;;;;;7.92;100.00;100132.72;5073597;28;20199;-58
2022/11/10 03:39:04;;;;;;;75.17;42.70;;;;;;;7.88;100.00;100141.38;5073830;28;20580;-58
2022/11/10 03:41:31;;;;;;;86.70;45.50;;;;;;;7.78;100.00;100119.06;5073006;28;20224;-55
2022/11/10 03:43:58;;;;;;;79.70;43.50;;;;;;;7.74;100.00;100101.88;5072675;28;20219;-55
2022/11/10 03:46:25;;;;;;;73.43;41.73;;;;;;;7.81;100.00;100136.25;5072927;28;20196;-57
2022/11/10 03:48:53;;;;;;;75.10;43.80;;;;;;;7.82;100.00;100138.81;5073325;28;20192;-58
2022/11/10 03:51:21;;;;;;;74.93;42.17;;;;;;;7.84;100.00;100131.06;5073068;28;20204;-57
2022/11/10 03:53:48;;;;;;;81.27;45.67;;;;;;;7.91;100.00;100131.00;5073158;28;20210;-57
2022/11/10 03:56:15;;;;;;;72.00;42.90;;;;;;;7.96;100.00;100134.41;5072879;28;20435;-57
2022/11/10 03:58:42;;;;;;;78.10;41.73;;;;;;;7.99;100.00;100131.81;5073125;28;20214;-57
2022/11/10 04:01:09;;;;;;;74.97;42.13;;;;;;;7.98;100.00;100135.25;5072774;28;20202;-60
2022/11/10 04:03:36;;;;;;;73.37;41.30;;;;;;;7.98;100.00;100137.84;5072999;28;20224;-58
2022/11/10 04:09:01;;;;;;;78.37;42.03;;;;;;;7.99;100.00;100133.53;5072703;28;20206;-55
2022/11/10 04:16:58;;;;;;;77.13;41.97;;;;;;;7.94;100.00;100137.88;5073232;28;20711;-59
2022/11/10 04:19:25;;;;;;;74.10;41.67;;;;;;;7.83;100.00;100135.38;5073888;28;20287;-59
2022/11/10 04:21:54;;;;;;;73.30;41.93;;;;;;;7.87;100.00;100142.25;5067244;28;20248;-59
2022/11/10 04:24:21;;;;;;;78.20;43.53;;;;;;;7.96;100.00;100134.41;5051478;28;20229;-56
2022/11/10 04:26:48;;;;;;;69.40;41.43;;;;;;;8.00;100.00;100138.69;5052255;28;20221;-58
2022/11/10 04:29:16;;;;;;;79.40;43.73;;;;;;;7.92;100.00;100137.03;5052993;28;20223;-58
2022/11/10 04:31:43;;;;;;;75.80;43.57;;;;;;;7.88;100.00;100140.53;5053044;28;20220;-59
2022/11/10 04:34:13;;;;;;;70.33;42.50;;;;;;;7.89;100.00;100147.41;5057192;28;20230;-56
2022/11/10 04:36:42;;;;;;;73.83;42.37;;;;;;;7.89;100.00;100143.09;5071193;28;20311;-56
2022/11/10 04:39:11;;;;;;;71.17;41.00;;;;;;;7.81;100.00;100147.44;5070744;28;20262;-56
2022/11/10 04:41:38;;;;;;;79.93;41.50;;;;;;;7.71;100.00;100156.13;5072118;28;20691;-57
2022/11/10 04:44:05;;;;;;;82.93;41.63;;;;;;;7.53;100.00;100156.28;5078128;28;20227;-55
2022/11/10 04:46:34;;;;;;;85.93;41.90;;;;;;;7.57;100.00;100153.63;5067152;28;20701;-56
2022/11/10 04:49:01;;;;;;;84.47;40.73;;;;;;;7.57;100.00;100157.94;5071891;28;20214;-59
2022/11/10 04:51:30;;;;;;;75.07;42.30;;;;;;;7.56;100.00;100151.09;5073329;28;20195;-59
2022/11/10 04:53:57;;;;;;;80.80;42.33;;;;;;;7.59;100.00;100162.25;5070081;28;20207;-55
2022/11/10 04:56:26;;;;;;;84.03;42.90;;;;;;;7.60;100.00;100168.28;5069843;28;20194;-55
2022/11/10 04:58:54;;;;;;;77.37;40.30;;;;;;;7.57;100.00;100170.88;5067845;28;20193;-55
2022/11/10 05:01:22;;;;;;;75.77;43.33;;;;;;;7.56;100.00;100167.41;5069041;28;20311;-55
2022/11/10 05:03:50;;;;;;;79.13;42.57;;;;;;;7.55;100.00;100170.03;5069160;28;20216;-55
2022/11/10 05:06:17;;;;;;;73.57;40.23;;;;;;;7.58;100.00;100170.88;5069596;28;20207;-55
2022/11/10 05:08:45;;;;;;;77.80;41.93;;;;;;;7.56;100.00;100167.41;5066617;28;20723;-55
2022/11/10 05:11:12;;;;;;;77.87;40.57;;;;;;;7.63;100.00;100165.69;5069343;28;20210;-55
2022/11/10 05:13:41;;;;;;;68.80;38.93;;;;;;;7.60;100.00;100165.69;5072482;28;20196;-59
2022/11/10 05:16:08;;;;;;;65.37;39.33;;;;;;;7.56;100.00;100170.00;5072911;28;20698;-59
2022/11/10 05:18:35;;;;;;;72.00;39.10;;;;;;;7.60;100.00;100174.28;5072556;28;20200;-59
2022/11/10 05:21:02;;;;;;;64.77;37.83;;;;;;;7.71;100.00;100163.03;5072342;28;20242;-59
2022/11/10 05:23:38;;;;;;;66.90;38.43;;;;;;;7.75;100.00;100164.75;5070525;28;20302;-63
2022/11/10 05:26:06;;;;;;;67.87;37.80;;;;;;;7.76;100.00;100175.06;5069825;28;20195;-63
2022/11/10 05:28:33;;;;;;;73.83;38.47;;;;;;;7.65;100.00;100153.63;5069504;28;20204;-64
2022/11/10 05:31:02;;;;;;;71.83;39.13;;;;;;;7.93;100.00;100180.97;5069649;28;20218;-60
2022/11/10 05:33:29;;;;;;;68.67;38.50;;;;;;;7.91;100.00;100180.09;5070052;28;20271;-61
2022/11/10 05:35:56;;;;;;;76.33;39.80;;;;;;;7.72;100.00;100181.13;5069801;28;20688;-55
2022/11/10 05:38:23;;;;;;;64.00;39.63;;;;;;;7.69;100.00;100191.47;5070158;28;20211;-56
2022/11/10 05:40:50;;;;;;;69.33;40.23;;;;;;;7.75;100.00;100201.78;5070139;28;20208;-55
2022/11/10 05:43:17;;;;;;;71.90;38.87;;;;;;;7.88;100.00;100194.81;5069668;28;20762;-63
2022/11/10 05:45:44;;;;;;;71.50;39.30;;;;;;;7.97;100.00;100205.94;5070402;28;20246;-63
2022/11/10 05:48:12;;;;;;;69.63;38.27;;;;;;;7.93;100.00;100191.28;5070499;28;20747;-63
2022/11/10 05:50:39;;;;;;;76.53;37.93;;;;;;;7.93;100.00;100200.78;5070209;28;20414;-63
2022/11/10 05:53:06;;;;;;;73.67;40.90;;;;;;;7.96;100.00;100209.38;5070248;28;20668;-63
2022/11/10 05:55:33;;;;;;;75.97;41.63;;;;;;;7.92;100.00;100211.97;5069570;28;20192;-55
2022/11/10 05:58:00;;;;;;;79.07;42.67;;;;;;;7.98;100.00;100217.13;5070218;28;20195;-55
2022/11/10 06:00:29;;;;;;;74.30;41.80;;;;;;;8.11;100.00;100215.31;5070136;28;20200;-56
2022/11/10 06:02:58;;;;;;;75.93;40.30;;;;;;;8.31;100.00;100227.25;5070067;28;20210;-54
2022/11/10 06:05:27;;;;;;;74.57;39.37;;;;;;;8.21;100.00;100180.75;5069564;28;20228;-55
2022/11/10 06:07:54;;;;;;;76.67;38.40;;;;;;;8.66;100.00;100229.53;5070119;28;20602;-55
2022/11/10 06:10:21;;;;;;;86.10;39.07;;;;;;;8.73;100.00;100243.25;5070142;28;20196;-55
2022/11/10 06:12:48;;;;;;;67.43;38.60;;;;;;;8.88;100.00;100239.66;5070120;28;20252;-55
2022/11/10 06:15:15;;;;;;;75.07;38.13;;;;;;;8.92;100.00;100225.78;5070062;28;20192;-55
2022/11/10 06:17:43;;;;;;;73.83;37.83;;;;;;;8.96;100.00;100219.72;5069787;28;20199;-63
2022/11/10 06:20:11;;;;;;;78.27;39.23;;;;;;;9.10;100.00;100235.97;5069748;28;20228;-63
2022/11/10 06:22:39;;;;;;;74.80;39.23;;;;;;;9.16;100.00;100240.19;5069784;28;20218;-63
2022/11/10 06:25:07;;;;;;;74.97;37.77;;;;;;;9.24;100.00;100247.03;5069552;28;20269;-63
2022/11/10 06:27:34;;;;;;;101.00;42.40;;;;;;;9.20;100.00;100245.34;5069669;28;20192;-63
2022/11/10 06:30:01;;;;;;;100.10;42.37;;;;;;;9.26;100.00;100249.56;5069705;28;20204;-63
2022/11/10 06:32:28;;;;;;;79.57;42.43;;;;;;;9.24;100.00;100246.16;5069515;28;20200;-64
2022/11/10 06:34:55;;;;;;;97.13;42.80;;;;;;;9.23;100.00;100249.63;5069657;28;20192;-63
2022/11/10 06:37:22;;;;;;;82.60;42.27;;;;;;;9.21;100.00;100251.38;5069751;28;20308;-62
2022/11/10 06:39:50;;;;;;;100.93;43.23;;;;;;;9.18;100.00;100254.84;5069618;28;20202;-63
2022/11/10 06:42:17;;;;;;;102.47;45.87;;;;;;;9.22;100.00;100260.84;5069746;28;20288;-64
2022/11/10 06:44:44;;;;;;;92.83;44.90;;;;;;;9.25;100.00;100259.09;5069624;28;20223;-63
2022/11/10 06:47:11;;;;;;;100.77;43.73;;;;;;;9.31;100.00;100255.56;5069636;28;20215;-63
2022/11/10 06:49:38;;;;;;;106.00;44.50;;;;;;;9.25;100.00;100259.09;5069356;28;20215;-63
2022/11/10 06:52:05;;;;;;;97.10;43.17;;;;;;;9.27;100.00;100244.38;5069513;28;20635;-63
2022/11/10 06:54:32;;;;;;;87.20;41.30;;;;;;;9.34;100.00;100268.50;5069327;28;20642;-62
2022/11/10 06:57:00;;;;;;;91.60;41.63;;;;;;;9.27;100.00;100254.75;5069500;28;20191;-63
2022/11/10 06:59:27;;;;;;;91.93;42.30;;;;;;;9.37;100.00;100264.09;5069177;28;20206;-62
2022/11/10 07:01:54;;;;;;;79.13;41.57;;;;;;;9.48;100.00;100260.56;5069346;28;20192;-64
2022/11/10 07:04:21;;;;;;;83.53;40.23;;;;;;;9.53;100.00;100261.34;5072672;28;20609;-62
2022/11/10 07:06:48;;;;;;;84.03;42.60;;;;;;;9.58;100.00;100265.59;5073366;28;20203;-63
2022/11/10 07:09:15;;;;;;;90.13;39.70;;;;;;;9.61;100.00;100265.53;5072834;28;20200;-62
2022/11/10 07:11:42;;;;;;;77.80;41.67;;;;;;;9.72;100.00;100265.41;5068185;28;20234;-62
2022/11/10 07:14:10;;;;;;;74.63;40.20;;;;;;;9.79;100.00;100273.09;5069155;28;20648;-64
2022/11/10 07:16:37;;;;;;;78.03;40.37;;;;;;;9.74;100.00;100272.28;5072409;28;20321;-55
2022/11/10 07:19:04;;;;;;;77.87;41.43;;;;;;;9.76;100.00;100267.94;5072473;28;20211;-63
2022/11/10 07:21:31;;;;;;;73.77;38.80;;;;;;;9.83;100.00;100266.97;5072313;28;20827;-64
2022/11/10 07:36:49;;;;;;;65.10;38.97;;;;;;;10.53;100.00;100265.94;5068590;27;21109;-65
2022/11/10 07:39:16;;;;;;;74.03;41.03;;;;;;;10.53;100.00;100255.56;5065942;28;20227;-66
2022/11/10 07:41:43;;;;;;;68.40;38.47;;;;;;;10.60;100.00;100261.53;5065607;28;20246;-59
2022/11/10 07:44:10;;;;;;;74.20;42.07;;;;;;;10.61;100.00;100264.97;5066035;28;20398;-58
2022/11/10 07:46:37;;;;;;;79.77;41.30;;;;;;;10.58;100.00;100262.41;5066696;28;20300;-59
2022/11/10 07:49:03;;;;;;;74.93;41.07;;;;;;;10.61;100.00;100263.19;5057565;28;20196;-59
2022/11/10 07:51:30;;;;;;;68.30;40.90;;;;;;;10.63;100.00;100261.44;5055645;28;20205;-59
2022/11/10 07:53:59;;;;;;;87.60;44.27;;;;;;;10.67;100.00;100267.44;5046525;28;20207;-59
2022/11/10 07:56:27;;;;;;;80.50;46.30;;;;;;;10.50;100.00;100246.94;5046363;28;20678;-60
2022/11/10 07:58:53;;;;;;;81.50;47.77;;;;;;;10.83;100.00;100264.56;5046309;28;20205;-60
2022/11/10 08:01:20;;;;;;;89.13;47.43;;;;;;;10.78;100.00;100266.38;5046437;28;20209;-60
2022/11/10 08:03:47;;;;;;;82.27;46.43;;;;;;;10.89;100.00;100267.03;5059606;28;20211;-67
2022/11/10 08:06:14;;;;;;;87.43;49.30;;;;;;;11.00;100.00;100266.00;5053325;28;20218;-67
2022/11/10 08:08:41;;;;;;;83.77;47.67;;;;;;;11.08;100.00;100274.50;5054754;28;20193;-60
2022/11/10 08:11:09;;;;;;;76.17;48.03;;;;;;;11.10;100.00;100262.34;5053599;28;20200;-60
2022/11/10 08:13:38;;;;;;;88.53;48.70;;;;;;;11.09;100.00;100271.88;5056049;28;20200;-67
2022/11/10 08:16:05;;;;;;;80.60;46.20;;;;;;;11.18;100.00;100260.44;5054849;28;20244;-60
2022/11/10 08:18:32;;;;;;;80.03;47.13;;;;;;;11.36;100.00;100267.03;5065017;28;20197;-68
2022/11/10 08:21:00;;;;;;;79.13;46.03;;;;;;;11.39;100.00;100273.03;5064810;28;20191;-67
2022/11/10 08:23:28;;;;;;;78.67;47.60;;;;;;;11.36;100.00;100264.44;5065073;28;20297;-68
2022/11/10 08:25:58;;;;;;;77.40;47.60;;;;;;;11.40;100.00;100279.09;5056678;28;20229;-67
2022/11/10 08:28:27;;;;;;;80.70;48.90;;;;;;;11.40;100.00;100273.91;5044361;28;20231;-60
2022/11/10 08:30:54;;;;;;;89.00;47.77;;;;;;;11.36;100.00;100275.69;5054835;28;20224;-59
2022/11/10 08:33:21;;;;;;;84.83;48.57;;;;;;;11.24;100.00;100253.41;5063461;28;20218;-60
2022/11/10 08:35:49;;;;;;;88.57;49.10;;;;;;;11.41;100.00;100268.63;5061871;28;20228;-59
2022/11/10 08:38:18;;;;;;;85.73;50.67;;;;;;;11.53;100.00;100275.31;5040936;28;20210;-60
2022/11/10 08:40:45;;;;;;;85.00;47.47;;;;;;;11.48;100.00;100257.25;5041996;28;20235;-62
2022/11/10 08:43:13;;;;;;;80.57;46.33;;;;;;;11.60;100.00;100256.13;5042198;28;20291;-60
2022/11/10 08:45:43;;;;;;;87.10;48.10;;;;;;;11.68;100.00;100276.75;5051152;28;20609;-60
2022/11/10 08:48:12;;;;;;;92.07;50.57;;;;;;;11.74;100.00;100272.28;5046677;28;20761;-61
2022/11/10 08:50:40;;;;;;;83.33;49.37;;;;;;;11.79;100.00;100269.63;5045378;28;20229;-60
2022/11/10 08:53:10;;;;;;;93.20;52.03;;;;;;;11.91;100.00;100266.75;5033319;28;20221;-66
2022/11/10 08:55:37;;;;;;;91.37;51.23;;;;;;;12.07;100.00;100269.88;5050685;28;20319;-66
2022/11/10 08:58:06;;;;;;;93.20;51.63;;;;;;;12.19;100.00;100273.03;5049447;28;20207;-66
2022/11/10 09:00:33;;;;;;;95.17;50.57;;;;;;;12.16;100.00;100270.53;5048604;28;20193;-66
2022/11/10 09:03:06;;;;;;;91.17;48.27;;;;;;;12.21;100.00;100263.44;5050227;28;20193;-66
2022/11/10 09:05:33;;;;;;;87.17;48.60;;;;;;;12.34;100.00;100262.25;5049781;28;20224;-67
2022/11/10 09:08:00;;;;;;;85.60;48.40;;;;;;;12.38;100.00;100265.66;5050469;28;20200;-66
2022/11/10 09:10:27;;;;;;;84.30;47.00;;;;;;;12.40;100.00;100263.03;5050191;28;20197;-66
2022/11/10 09:12:54;;;;;;;85.80;45.50;;;;;;;12.39;100.00;100259.56;5050461;28;20197;-66
2022/11/10 09:15:21;;;;;;;78.83;46.10;;;;;;;12.33;100.00;100244.06;5051353;28;20231;-66
2022/11/10 09:17:48;;;;;;;83.37;45.57;;;;;;;12.53;100.00;100261.81;5051489;28;20711;-66
2022/11/10 09:20:17;;;;;;;82.80;44.53;;;;;;;12.64;100.00;100258.03;5051221;28;20207;-66
2022/11/10 09:22:44;;;;;;;76.97;42.63;;;;;;;12.61;100.00;100233.84;5051287;28;20197;-66
2022/11/10 09:25:11;;;;;;;80.30;42.60;;;;;;;12.84;100.00;100247.13;5051381;28;20224;-66
2022/11/10 09:27:38;;;;;;;91.37;44.80;;;;;;;12.97;100.00;100252.88;5051290;28;20207;-66
2022/11/10 09:30:07;;;;;;;76.93;42.50;;;;;;;13.05;100.00;100254.38;5051410;28;20669;-66
2022/11/10 09:32:34;;;;;;;79.03;42.50;;;;;;;13.11;100.00;100253.31;5051244;28;20193;-60
2022/11/10 09:35:02;;;;;;;77.63;42.40;;;;;;;13.19;100.00;100242.75;5051058;28;20311;-59
2022/11/10 09:37:30;;;;;;;85.47;43.13;;;;;;;13.27;100.00;100248.59;5051215;28;20207;-59
2022/11/10 09:39:57;;;;;;;77.30;42.47;;;;;;;13.36;100.00;100243.09;5051060;28;20198;-59
2022/11/10 09:42:32;;;;;;;71.33;40.93;;;;;;;13.43;100.00;100250.69;5050815;28;20289;-60
2022/11/10 09:45:07;;;;;;;71.33;41.17;;;;;;;13.45;100.00;100245.44;5050928;28;20228;-59
2022/11/10 09:47:41;;;;;;;78.03;42.37;;;;;;;13.44;100.00;100235.91;5050578;28;20665;-60
2022/11/10 09:50:18;;;;;;;72.57;40.20;;;;;;;13.51;100.00;100237.47;5050731;28;20200;-60
2022/11/10 09:52:50;;;;;;;72.90;39.93;;;;;;;13.71;100.00;100240.31;5050593;28;20200;-66
2022/11/10 09:55:26;;;;;;;62.93;38.33;;;;;;;13.78;100.00;100234.00;5050709;28;20193;-67
2022/11/10 09:57:56;;;;;;;72.90;40.80;;;;;;;13.84;100.00;100235.59;5050662;28;20286;-61
2022/11/10 10:00:23;;;;;;;67.17;38.83;;;;;;;13.87;100.00;100234.66;5050825;28;20623;-60
2022/11/10 10:02:53;;;;;;;68.23;41.00;;;;;;;13.85;100.00;100236.44;5050486;28;20215;-60
2022/11/10 10:05:39;;;;;;;69.70;38.67;;;;;;;13.84;100.00;100239.97;5050521;28;20610;-61
2022/11/10 10:08:11;;;;;;;73.77;37.97;;;;;;;13.92;100.00;100237.97;5050534;28;20208;-60
2022/11/10 10:10:41;;;;;;;67.83;39.80;;;;;;;14.05;100.00;100231.47;5050705;28;20570;-61
2022/11/10 10:13:27;;;;;;;65.47;37.97;;;;;;;14.11;100.00;100226.03;5050578;28;20228;-60
2022/11/10 10:16:10;;;;;;;69.07;38.87;;;;;;;14.11;100.00;100228.63;5050404;28;20188;-61
2022/11/10 10:18:46;;;;;;;61.77;37.70;;;;;;;14.17;100.00;100220.63;5050360;28;20200;-59
2022/11/10 10:21:26;;;;;;;67.10;38.80;;;;;;;14.24;100.00;100209.06;5050323;28;20697;-59
2022/11/10 10:23:57;;;;;;;69.80;39.03;;;;;;;14.28;100.00;100200.25;5050279;28;20211;-59
2022/11/10 10:26:27;;;;;;;74.97;41.00;;;;;;;14.34;100.00;100204.41;5049965;28;20660;-65
2022/11/10 10:28:56;;;;;;;105.20;41.67;;;;;;;14.33;100.00;100190.50;5049497;28;20203;-66
2022/11/10 10:31:25;;;;;;;87.50;42.53;;;;;;;14.41;100.00;100201.59;5048838;28;20666;-66
2022/11/10 10:33:53;;;;;;;81.07;41.60;;;;;;;14.36;100.00;100190.38;5049032;28;20680;-65
2022/11/10 10:36:23;;;;;;;80.57;41.97;;;;;;;14.60;100.00;100203.56;5049681;28;20761;-66
2022/11/10 10:38:54;;;;;;;83.33;42.10;;;;;;;14.61;100.00;100200.91;5050198;28;20642;-66
2022/11/10 10:41:24;;;;;;;93.70;42.60;;;;;;;14.57;100.00;100169.69;5049819;28;20283;-65
2022/11/10 10:43:54;;;;;;;79.33;40.67;;;;;;;14.70;100.00;100197.09;5036862;28;20661;-66
2022/11/10 10:46:25;;;;;;;66.17;37.50;;;;;;;14.63;100.00;100185.19;5029311;28;20710;-67
2022/11/10 10:49:13;;;;;;;64.97;37.07;;;;;;;14.76;100.00;100178.63;5029898;28;20251;-59
2022/11/10 10:51:41;;;;;;;63.80;38.10;;;;;;;14.82;99.51;100187.09;5029462;28;20228;-65
2022/11/10 10:54:23;;;;;;;67.57;37.27;;;;;;;14.86;99.73;100182.59;5029131;28;20327;-66
2022/11/10 10:57:01;;;;;;;59.87;35.90;;;;;;;14.88;99.47;100178.19;5029258;28;20224;-59
2022/11/10 10:59:28;;;;;;;62.50;37.83;;;;;;;14.93;99.81;100183.22;5028977;28;20590;-61
2022/11/10 11:01:56;;;;;;;53.10;35.33;;;;;;;14.88;100.00;100162.50;5032330;28;20304;-60
2022/11/10 11:04:29;;;;;;;56.73;34.00;;;;;;;15.02;99.38;100178.53;5049257;28;20217;-60
2022/11/10 11:06:58;;;;;;;52.17;33.43;;;;;;;15.08;99.48;100167.84;5049340;28;20233;-60
2022/11/10 11:09:27;;;;;;;50.87;30.40;;;;;;;15.13;99.02;100163.28;5049138;28;20224;-60
2022/11/10 11:12:06;;;;;;;54.03;28.50;;;;;;;15.06;98.54;100138.28;5048897;28;20681;-66
2022/11/10 11:14:34;;;;;;;43.93;29.53;;;;;;;15.05;98.65;100144.44;5037639;28;20192;-66
2022/11/10 11:17:02;;;;;;;38.23;27.37;;;;;;;15.29;97.95;100162.72;5038896;28;20197;-66
2022/11/10 11:19:32;;;;;;;45.33;28.50;;;;;;;15.17;97.75;100137.88;5037364;28;20310;-65
2022/11/10 11:22:28;;;;;;;47.20;27.83;;;;;;;15.40;97.88;100168.41;5029631;28;20201;-67
2022/11/10 11:25:06;;;;;;;38.00;25.50;;;;;;;15.37;97.84;100164.13;5043627;28;20260;-67
2022/11/10 11:27:44;;;;;;;40.97;28.60;;;;;;;15.39;98.20;100158.84;5039047;28;20287;-67
2022/11/10 11:30:21;;;;;;;50.33;30.07;;;;;;;15.42;97.69;100163.97;5039212;28;20202;-67
2022/11/10 11:33:13;;;;;;;92.40;32.23;;;;;;;15.31;98.10;100139.97;5039204;28;20192;-67
2022/11/10 11:35:48;;;;;;;181.30;36.07;;;;;;;15.50;98.00;100156.66;5039139;28;20220;-59
2022/11/10 11:38:30;;;;;;;79.70;31.23;;;;;;;15.42;97.52;100132.56;5039045;28;20211;-60